createdAt,value
2018-08-11T00:00:16.322Z,93.20
2018-08-11T00:02:44.788Z,93.00
2018-08-11T00:05:13.266Z,92.90
2018-08-11T00:07:41.732Z,92.90
2018-08-11T00:10:10.222Z,93.00
2018-08-11T00:12:38.859Z,93.20
2018-08-11T00:15:09.848Z,93.10
2018-08-11T00:17:38.571Z,93.10
2018-08-11T00:20:09.864Z,93.30
2018-08-11T00:22:38.813Z,93.40
2018-08-11T00:25:08.072Z,93.30
2018-08-11T00:27:36.538Z,93.40
2018-08-11T00:30:07.922Z,93.50
2018-08-11T00:32:36.437Z,93.50
2018-08-11T00:35:06.871Z,93.60
2018-08-11T00:37:35.433Z,93.60
2018-08-11T00:40:05.733Z,93.60
2018-08-11T00:42:34.260Z,93.60
2018-08-11T00:45:02.767Z,93.60
2018-08-11T00:47:31.210Z,93.40
2018-08-11T00:49:59.660Z,93.30
2018-08-11T00:52:28.066Z,93.20
2018-08-11T00:54:56.534Z,93.00
2018-08-11T00:57:25.042Z,93.00
2018-08-11T00:59:54.497Z,93.00
2018-08-11T01:02:22.964Z,92.90
2018-08-11T01:04:51.377Z,92.70
2018-08-11T01:07:19.810Z,92.80
2018-08-11T01:09:48.258Z,93.00
2018-08-11T01:12:16.712Z,93.10
2018-08-11T01:14:45.166Z,93.30
2018-08-11T01:17:13.629Z,93.50
2018-08-11T01:19:42.017Z,93.40
2018-08-11T01:22:10.517Z,93.40
2018-08-11T01:24:38.947Z,93.40
2018-08-11T01:27:07.477Z,93.40
2018-08-11T01:29:35.935Z,93.40
2018-08-11T01:32:04.405Z,93.20
2018-08-11T01:34:32.997Z,93.30
2018-08-11T01:37:01.434Z,93.00
2018-08-11T01:39:29.849Z,93.00
2018-08-11T01:41:58.318Z,92.80
2018-08-11T01:44:26.789Z,92.80
2018-08-11T01:46:55.354Z,92.90
2018-08-11T01:49:23.798Z,92.80
2018-08-11T01:51:52.214Z,92.80
2018-08-11T01:54:20.644Z,92.80
2018-08-11T01:56:49.098Z,92.70
2018-08-11T01:59:17.518Z,92.80
2018-08-11T02:01:46.010Z,93.00
2018-08-11T02:04:14.446Z,93.00
2018-08-11T02:06:42.892Z,93.20
2018-08-11T02:09:11.520Z,93.20
2018-08-11T02:11:40.469Z,93.20
2018-08-11T02:14:09.231Z,93.20
2018-08-11T02:16:37.943Z,93.10
2018-08-11T02:19:06.406Z,92.80
2018-08-11T02:21:35.038Z,92.90
2018-08-11T02:24:03.477Z,93.00
2018-08-11T02:26:31.901Z,93.10
2018-08-11T02:29:00.321Z,93.10
2018-08-11T02:31:28.781Z,93.10
2018-08-11T02:33:57.267Z,93.10
2018-08-11T02:36:25.680Z,93.10
2018-08-11T02:38:54.092Z,93.00
2018-08-11T02:41:22.591Z,92.90
2018-08-11T02:43:51.095Z,92.80
2018-08-11T02:46:19.557Z,92.80
2018-08-11T02:51:16.126Z,93.00
2018-08-11T02:53:44.538Z,93.40
2018-08-11T02:56:12.953Z,93.50
2018-08-11T02:58:41.373Z,93.90
2018-08-11T03:01:09.778Z,94.20
2018-08-11T03:06:06.408Z,94.50
2018-08-11T03:08:34.864Z,94.40
2018-08-11T03:11:03.277Z,94.40
2018-08-11T03:13:31.706Z,94.30
2018-08-11T03:16:00.134Z,94.40
2018-08-11T03:18:28.561Z,94.60
2018-08-11T03:20:57.001Z,94.70
2018-08-11T03:23:25.446Z,94.60
2018-08-11T03:25:53.880Z,94.70
2018-08-11T03:28:22.361Z,94.70
2018-08-11T03:30:50.792Z,94.60
2018-08-11T03:33:19.218Z,94.50
2018-08-11T03:35:47.625Z,94.60
2018-08-11T03:40:44.158Z,94.50
2018-08-11T03:43:12.617Z,94.50
2018-08-11T03:45:41.016Z,94.40
2018-08-11T03:48:09.495Z,94.40
2018-08-11T03:50:38.015Z,94.30
2018-08-11T03:53:06.584Z,94.30
2018-08-11T03:55:34.993Z,94.10
2018-08-11T04:00:31.538Z,94.00
2018-08-11T04:02:59.992Z,93.90
2018-08-11T04:05:28.418Z,93.90
2018-08-11T04:07:56.857Z,93.90
2018-08-11T04:10:25.250Z,93.90
2018-08-11T04:12:53.694Z,93.90
2018-08-11T04:15:22.103Z,93.90
2018-08-11T04:17:50.540Z,94.00
2018-08-11T04:20:18.954Z,93.90
2018-08-11T04:22:47.384Z,93.80
2018-08-11T04:25:15.869Z,93.60
2018-08-11T04:30:12.472Z,93.20
2018-08-11T04:32:41.361Z,93.10
2018-08-11T04:35:09.822Z,93.20
2018-08-11T04:37:38.245Z,93.50
2018-08-11T04:40:06.766Z,93.70
2018-08-11T04:42:35.209Z,93.90
2018-08-11T04:45:03.732Z,93.90
2018-08-11T04:50:00.317Z,94.20
2018-08-11T04:52:28.713Z,94.00
2018-08-11T04:54:57.217Z,93.90
2018-08-11T04:57:25.660Z,93.50
2018-08-11T04:59:54.093Z,93.30
2018-08-11T05:02:22.560Z,93.30
2018-08-11T05:04:51.166Z,93.20
2018-08-11T05:07:19.609Z,93.00
2018-08-11T05:09:48.076Z,92.80
2018-08-11T05:12:16.464Z,92.80
2018-08-11T05:14:44.922Z,92.60
2018-08-11T05:17:13.347Z,92.60
2018-08-11T05:19:41.796Z,92.20
2018-08-11T05:22:10.202Z,92.10
2018-08-11T05:24:38.620Z,92.00
2018-08-11T05:27:07.042Z,92.10
2018-08-11T05:29:35.472Z,91.90
2018-08-11T05:32:03.930Z,91.80
2018-08-11T05:34:32.379Z,91.90
2018-08-11T05:37:00.793Z,91.90
2018-08-11T05:39:29.271Z,91.90
2018-08-11T05:41:57.684Z,91.70
2018-08-11T05:46:54.411Z,91.70
2018-08-11T05:49:22.902Z,91.20
2018-08-11T05:51:51.320Z,91.20
2018-08-11T05:54:19.744Z,91.00
2018-08-11T05:56:48.125Z,90.80
2018-08-11T05:59:16.586Z,90.30
2018-08-11T06:01:45.287Z,90.60
2018-08-11T06:04:13.802Z,90.60
2018-08-11T06:06:42.238Z,90.60
2018-08-11T06:09:11.202Z,89.60
2018-08-11T06:14:08.743Z,88.70
2018-08-11T06:16:37.296Z,88.40
2018-08-11T06:19:06.025Z,87.20
2018-08-11T06:21:34.485Z,87.20
2018-08-11T06:24:02.914Z,84.80
2018-08-11T06:26:31.352Z,84.20
2018-08-11T06:28:59.809Z,82.10
2018-08-11T06:31:28.340Z,80.00
2018-08-11T06:33:57.277Z,76.30
2018-08-11T06:36:25.740Z,74.90
2018-08-11T06:38:54.349Z,73.70
2018-08-11T06:41:22.767Z,74.30
2018-08-11T06:43:51.177Z,74.00
2018-08-11T06:46:19.625Z,74.20
2018-08-11T06:48:48.057Z,73.50
2018-08-11T06:51:16.624Z,73.90
2018-08-11T06:53:45.038Z,75.40
2018-08-11T06:56:13.467Z,77.10
2018-08-11T06:58:41.862Z,77.50
2018-08-11T07:01:10.281Z,77.10
2018-08-11T07:03:38.686Z,77.70
2018-08-11T07:06:07.123Z,77.70
2018-08-11T07:08:35.517Z,75.10
2018-08-11T07:11:03.916Z,71.50
2018-08-11T07:13:32.317Z,71.40
2018-08-11T07:16:00.738Z,71.10
2018-08-11T07:18:29.137Z,68.90
2018-08-11T07:20:57.573Z,62.90
2018-08-11T07:23:25.957Z,62.50
2018-08-11T07:25:54.385Z,62.90
2018-08-11T07:28:22.776Z,62.80
2018-08-11T07:30:51.233Z,59.40
2018-08-11T07:33:19.662Z,60.30
2018-08-11T07:35:48.089Z,60.60
2018-08-11T07:40:44.612Z,61.90
2018-08-11T07:43:13.085Z,60.60
2018-08-11T07:45:41.530Z,61.30
2018-08-11T07:48:10.062Z,61.20
2018-08-11T07:50:38.468Z,60.30
2018-08-11T07:53:06.867Z,59.40
2018-08-11T07:55:35.332Z,59.10
2018-08-11T07:58:03.981Z,58.50
2018-08-11T08:00:32.402Z,57.30
2018-08-11T08:03:00.844Z,57.80
2018-08-11T08:05:29.308Z,58.40
2018-08-11T08:07:57.784Z,57.40
2018-08-11T08:10:26.212Z,56.90
2018-08-11T08:12:54.660Z,56.70
2018-08-11T08:15:23.107Z,56.10
2018-08-11T08:17:51.509Z,56.60
2018-08-11T08:20:19.919Z,56.70
2018-08-11T08:22:48.361Z,55.00
2018-08-11T08:25:16.760Z,55.70
2018-08-11T08:27:45.201Z,57.50
2018-08-11T08:30:13.636Z,58.70
2018-08-11T08:32:42.073Z,58.60
2018-08-11T08:35:10.881Z,56.00
2018-08-11T08:37:39.370Z,56.40
2018-08-11T08:40:08.120Z,55.10
2018-08-11T08:42:36.633Z,55.00
2018-08-11T08:45:07.369Z,53.80
2018-08-11T08:47:35.939Z,53.90
2018-08-11T08:50:04.689Z,52.90
2018-08-11T08:52:33.137Z,54.20
2018-08-11T08:55:01.527Z,54.70
2018-08-11T08:57:29.980Z,55.00
2018-08-11T08:59:58.401Z,54.90
2018-08-11T09:02:26.837Z,51.90
2018-08-11T09:04:55.284Z,51.80
2018-08-11T09:07:23.692Z,53.00
2018-08-11T09:09:52.087Z,52.60
2018-08-11T09:12:20.561Z,52.40
2018-08-11T09:14:48.960Z,52.40
2018-08-11T09:17:17.395Z,53.30
2018-08-11T09:19:45.812Z,51.60
2018-08-11T09:22:14.317Z,51.30
2018-08-11T09:24:42.758Z,52.30
2018-08-11T09:27:11.197Z,53.00
2018-08-11T09:29:39.598Z,51.60
2018-08-11T09:32:08.023Z,52.60
2018-08-11T09:34:36.692Z,53.50
2018-08-11T09:37:05.113Z,52.50
2018-08-11T09:39:33.535Z,52.70
2018-08-11T09:42:02.034Z,52.70
2018-08-11T09:44:30.471Z,53.00
2018-08-11T09:46:58.870Z,51.50
2018-08-11T09:49:27.316Z,51.40
2018-08-11T09:51:55.764Z,51.30
2018-08-11T09:54:24.326Z,51.70
2018-08-11T09:56:52.752Z,50.70
2018-08-11T09:59:21.329Z,50.90
2018-08-11T10:01:55.209Z,49.30
2018-08-11T10:04:23.656Z,49.50
2018-08-11T10:06:52.096Z,51.30
2018-08-11T10:09:20.625Z,51.00
2018-08-11T10:11:49.093Z,51.70
2018-08-11T10:14:17.556Z,52.40
2018-08-11T10:16:45.960Z,53.30
2018-08-11T10:19:14.389Z,53.50
2018-08-11T10:21:42.798Z,52.30
2018-08-11T10:24:11.253Z,52.90
2018-08-11T10:26:39.757Z,53.00
2018-08-11T10:29:08.184Z,52.30
2018-08-11T10:31:36.604Z,53.50
2018-08-11T10:34:05.060Z,53.30
2018-08-11T10:36:33.568Z,51.60
2018-08-11T10:39:02.150Z,51.50
2018-08-11T10:41:30.569Z,52.10
2018-08-11T10:43:59.004Z,50.60
2018-08-11T10:48:55.597Z,52.50
2018-08-11T10:51:24.018Z,53.80
2018-08-11T10:53:52.561Z,53.80
2018-08-11T10:56:20.974Z,54.40
2018-08-11T10:58:49.382Z,54.10
2018-08-11T11:06:14.065Z,58.70
2018-08-11T11:08:42.725Z,59.80
2018-08-11T11:11:11.353Z,59.90
2018-08-11T11:13:39.801Z,61.30
2018-08-11T11:16:08.248Z,60.90
2018-08-11T11:18:36.691Z,60.50
2018-08-11T11:21:05.638Z,60.40
2018-08-11T11:23:34.024Z,61.30
2018-08-11T11:26:02.468Z,61.00
2018-08-11T11:28:30.852Z,60.20
2018-08-11T11:30:59.305Z,60.30
2018-08-11T11:33:27.700Z,61.40
2018-08-11T11:35:56.119Z,61.80
2018-08-11T11:38:24.513Z,61.50
2018-08-11T11:40:52.973Z,61.50
2018-08-11T11:43:21.428Z,61.00
2018-08-11T11:45:49.900Z,62.50
2018-08-11T11:48:18.348Z,61.90
2018-08-11T11:50:46.754Z,62.90
2018-08-11T11:53:15.168Z,63.10
2018-08-11T11:55:43.564Z,63.30
2018-08-11T11:58:12.029Z,63.00
2018-08-11T12:00:40.450Z,63.00
2018-08-11T12:03:08.887Z,62.80
2018-08-11T12:05:37.296Z,62.30
2018-08-11T12:08:06.060Z,62.40
2018-08-11T12:10:34.480Z,61.70
2018-08-11T12:13:02.933Z,62.50
2018-08-11T12:15:31.342Z,62.90
2018-08-11T12:18:00.036Z,61.80
2018-08-11T12:20:28.461Z,62.60
2018-08-11T12:22:56.939Z,63.10
2018-08-11T12:25:25.377Z,63.10
2018-08-11T12:27:53.801Z,62.60
2018-08-11T12:30:22.240Z,63.00
2018-08-11T12:32:50.689Z,63.10
2018-08-11T12:35:19.290Z,63.30
2018-08-11T12:37:47.769Z,63.20
2018-08-11T12:40:16.178Z,63.30
2018-08-11T12:42:44.624Z,63.80
2018-08-11T12:45:13.035Z,64.30
2018-08-11T12:47:41.492Z,63.50
2018-08-11T12:50:10.382Z,64.20
2018-08-11T12:52:38.905Z,63.80
2018-08-11T12:55:07.337Z,63.70
2018-08-11T12:57:35.772Z,62.70
2018-08-11T13:00:05.251Z,63.30
2018-08-11T13:02:33.656Z,63.30
2018-08-11T13:05:02.099Z,63.90
2018-08-11T13:07:30.736Z,63.90
2018-08-11T13:09:59.165Z,63.70
2018-08-11T13:14:55.732Z,64.40
2018-08-11T13:17:24.393Z,63.00
2018-08-11T13:19:52.829Z,62.80
2018-08-11T13:22:21.221Z,63.20
2018-08-11T13:24:49.640Z,63.80
2018-08-11T13:27:18.057Z,64.20
2018-08-11T13:29:46.539Z,63.70
2018-08-11T13:32:14.956Z,63.80
2018-08-11T13:34:43.401Z,63.80
2018-08-11T13:37:11.815Z,64.00
2018-08-11T13:39:45.769Z,64.40
2018-08-11T13:44:42.458Z,64.50
2018-08-11T13:47:10.953Z,64.20
2018-08-11T13:49:39.463Z,64.60
2018-08-11T13:52:07.946Z,64.70
2018-08-11T13:54:36.394Z,64.00
2018-08-11T13:57:04.879Z,64.30
2018-08-11T13:59:33.312Z,63.00
2018-08-11T14:02:01.742Z,63.90
2018-08-11T14:04:30.181Z,64.30
2018-08-11T14:06:58.634Z,63.70
2018-08-11T14:09:27.049Z,62.70
2018-08-11T14:11:55.564Z,63.50
2018-08-11T14:14:23.953Z,63.90
2018-08-11T14:16:52.393Z,64.00
2018-08-11T14:19:20.821Z,64.80
2018-08-11T14:21:49.261Z,64.90
2018-08-11T14:24:17.689Z,64.60
2018-08-11T14:26:46.137Z,64.60
2018-08-11T14:29:14.549Z,64.10
2018-08-11T14:31:43.045Z,64.60
2018-08-11T14:34:11.481Z,65.40
2018-08-11T14:36:40.021Z,64.30
2018-08-11T14:39:09.473Z,63.70
2018-08-11T14:41:38.014Z,63.30
2018-08-11T14:44:06.756Z,63.50
2018-08-11T14:46:35.169Z,63.50
2018-08-11T14:49:03.677Z,63.70
2018-08-11T14:51:32.138Z,64.10
2018-08-11T14:54:00.621Z,63.50
2018-08-11T14:56:29.155Z,63.50
2018-08-11T14:58:57.641Z,63.20
2018-08-11T15:01:26.082Z,63.20
2018-08-11T15:03:54.540Z,63.10
2018-08-11T15:06:23.241Z,62.70
2018-08-11T15:08:51.700Z,63.20
2018-08-11T15:11:20.118Z,63.30
2018-08-11T15:13:48.549Z,62.70
2018-08-11T15:16:17.032Z,63.30
2018-08-11T15:18:45.455Z,63.10
2018-08-11T15:21:13.924Z,63.50
2018-08-11T15:23:42.381Z,63.00
2018-08-11T15:26:10.800Z,63.10
2018-08-11T15:28:39.199Z,64.00
2018-08-11T15:31:07.704Z,64.30
2018-08-11T15:33:36.109Z,63.80
2018-08-11T15:36:04.860Z,63.30
2018-08-11T15:38:33.364Z,62.80
2018-08-11T15:41:01.781Z,63.80
2018-08-11T15:43:30.186Z,63.20
2018-08-11T15:45:58.666Z,62.80
2018-08-11T15:48:27.333Z,62.90
2018-08-11T15:50:55.990Z,62.60
2018-08-11T15:53:24.392Z,62.90
2018-08-11T15:55:53.057Z,62.70
2018-08-11T15:58:21.446Z,62.80
2018-08-11T16:00:49.890Z,62.90
2018-08-11T16:05:46.439Z,63.70
2018-08-11T16:08:15.217Z,64.40
2018-08-11T16:10:43.840Z,64.60
2018-08-11T16:13:12.245Z,64.40
2018-08-11T16:15:40.684Z,64.30
2018-08-11T16:18:09.120Z,64.00
2018-08-11T16:20:37.514Z,64.10
2018-08-11T16:23:06.112Z,63.20
2018-08-11T16:28:02.651Z,62.60
2018-08-11T16:30:31.090Z,62.60
2018-08-11T16:32:59.586Z,63.10
2018-08-11T16:35:27.988Z,64.00
2018-08-11T16:37:56.453Z,64.60
2018-08-11T16:40:24.858Z,65.10
2018-08-11T16:42:53.300Z,65.20
2018-08-11T16:45:21.708Z,64.80
2018-08-11T16:47:50.224Z,64.90
2018-08-11T16:50:18.635Z,64.00
2018-08-11T16:52:47.033Z,63.80
2018-08-11T16:55:15.490Z,63.80
2018-08-11T16:57:43.938Z,64.30
2018-08-11T17:00:13.382Z,64.70
2018-08-11T17:02:42.685Z,65.10
2018-08-11T17:05:11.189Z,64.90
2018-08-11T17:07:39.569Z,64.40
2018-08-11T17:10:09.451Z,64.80
2018-08-11T17:12:38.423Z,64.00
2018-08-11T17:15:07.108Z,63.50
2018-08-11T17:17:35.519Z,63.80
2018-08-11T17:20:04.171Z,63.40
2018-08-11T17:22:32.582Z,63.70
2018-08-11T17:25:01.013Z,64.00
2018-08-11T17:27:29.429Z,63.80
2018-08-11T17:29:57.947Z,64.10
2018-08-11T17:32:26.441Z,64.10
2018-08-11T17:34:54.905Z,64.80
2018-08-11T17:37:23.335Z,64.70
2018-08-11T17:39:51.801Z,64.40
2018-08-11T17:42:20.208Z,64.30
2018-08-11T17:44:48.637Z,64.00
2018-08-11T17:47:17.052Z,63.90
2018-08-11T17:49:45.478Z,64.10
2018-08-11T17:52:13.890Z,64.70
2018-08-11T17:57:10.586Z,65.40
2018-08-11T17:59:39.133Z,66.20
2018-08-11T18:02:07.648Z,66.60
2018-08-11T18:04:36.064Z,66.60
2018-08-11T18:07:04.585Z,67.30
2018-08-11T18:09:32.993Z,67.80
2018-08-11T18:12:01.486Z,68.20
2018-08-11T18:14:29.988Z,68.70
2018-08-11T18:16:58.398Z,69.00
2018-08-11T18:19:26.798Z,69.50
2018-08-11T18:21:55.231Z,69.70
2018-08-11T18:24:23.682Z,70.10
2018-08-11T18:26:52.117Z,70.20
2018-08-11T18:29:20.524Z,70.40
2018-08-11T18:31:48.965Z,70.50
2018-08-11T18:34:17.413Z,71.00
2018-08-11T18:36:45.916Z,71.40
2018-08-11T18:39:14.824Z,71.70
2018-08-11T18:41:43.788Z,71.90
2018-08-11T18:44:12.202Z,71.70
2018-08-11T18:46:40.752Z,71.50
2018-08-11T18:49:09.224Z,72.10
2018-08-11T18:51:37.672Z,72.60
2018-08-11T18:54:06.628Z,73.00
2018-08-11T18:56:35.124Z,73.30
2018-08-11T18:59:03.620Z,73.20
2018-08-11T19:01:32.139Z,73.40
2018-08-11T19:04:00.576Z,73.90
2018-08-11T19:06:29.083Z,74.30
2018-08-11T19:08:57.503Z,75.10
2018-08-11T19:11:26.028Z,75.60
2018-08-11T19:13:54.492Z,76.30
2018-08-11T19:16:22.969Z,76.90
2018-08-11T19:18:51.497Z,77.00
2018-08-11T19:21:19.934Z,76.90
2018-08-11T19:23:48.411Z,76.70
2018-08-11T19:26:16.841Z,76.70
2018-08-11T19:28:45.296Z,76.30
2018-08-11T19:31:13.732Z,76.60
2018-08-11T19:33:42.185Z,76.80
2018-08-11T19:36:10.621Z,76.70
2018-08-11T19:38:39.460Z,77.30
2018-08-11T19:41:07.867Z,77.40
2018-08-11T19:43:36.605Z,77.40
2018-08-11T19:46:05.213Z,77.60
2018-08-11T19:51:01.794Z,77.80
2018-08-11T19:53:30.257Z,78.00
2018-08-11T19:55:58.807Z,77.80
2018-08-11T19:58:27.222Z,78.10
2018-08-11T20:00:55.693Z,78.30
2018-08-11T20:03:24.191Z,78.40
2018-08-11T20:05:52.739Z,78.50
2018-08-11T20:08:21.206Z,78.80
2018-08-11T20:10:49.702Z,78.80
2018-08-11T20:13:18.166Z,79.00
2018-08-11T20:15:46.589Z,79.20
2018-08-11T20:18:14.997Z,79.60
2018-08-11T20:20:43.481Z,79.70
2018-08-11T20:23:11.917Z,79.90
2018-08-11T20:25:40.556Z,80.10
2018-08-11T20:28:08.877Z,80.10
2018-08-11T20:30:37.352Z,80.50
2018-08-11T20:33:05.788Z,80.60
2018-08-11T20:35:34.289Z,80.90
2018-08-11T20:38:02.753Z,81.30
2018-08-11T20:40:31.447Z,81.20
2018-08-11T20:43:00.053Z,81.30
2018-08-11T20:45:28.501Z,81.40
2018-08-11T20:47:56.997Z,81.20
2018-08-11T20:50:25.435Z,81.40
2018-08-11T20:52:53.885Z,81.40
2018-08-11T20:55:22.325Z,81.50
2018-08-11T20:57:50.818Z,81.60
2018-08-11T21:00:19.246Z,81.50
2018-08-11T21:02:47.689Z,81.50
2018-08-11T21:05:16.163Z,81.40
2018-08-11T21:07:44.598Z,81.50
2018-08-11T21:10:14.446Z,81.70
2018-08-11T21:12:43.379Z,81.80
2018-08-11T21:15:12.523Z,82.30
2018-08-11T21:17:41.129Z,82.30
2018-08-11T21:20:12.085Z,82.30
2018-08-11T21:22:40.565Z,82.00
2018-08-11T21:25:10.081Z,82.30
2018-08-11T21:27:39.031Z,82.00
2018-08-11T21:30:10.213Z,82.00
2018-08-11T21:32:38.750Z,82.30
2018-08-11T21:35:07.194Z,82.10
2018-08-11T21:37:35.717Z,82.30
2018-08-11T21:40:05.681Z,82.30
2018-08-11T21:42:34.102Z,82.10
2018-08-11T21:45:02.497Z,82.50
2018-08-11T21:47:30.976Z,82.30
2018-08-11T21:50:00.453Z,82.40
2018-08-11T21:52:28.967Z,82.50
2018-08-11T21:54:57.385Z,82.60
2018-08-11T21:57:25.872Z,82.80
2018-08-11T21:59:54.293Z,82.90
2018-08-11T22:02:22.765Z,83.00
2018-08-11T22:04:51.175Z,82.80
2018-08-11T22:07:19.623Z,83.10
2018-08-11T22:09:48.088Z,83.00
2018-08-11T22:12:16.574Z,83.00
2018-08-11T22:14:45.025Z,82.90
2018-08-11T22:17:13.482Z,83.00
2018-08-11T22:19:41.906Z,83.10
2018-08-11T22:22:10.360Z,83.40
2018-08-11T22:24:38.788Z,83.40
2018-08-11T22:27:07.414Z,83.30
2018-08-11T22:29:35.860Z,83.30
2018-08-11T22:32:04.321Z,83.40
2018-08-11T22:34:32.792Z,83.30
2018-08-11T22:37:01.228Z,83.20
2018-08-11T22:39:29.744Z,83.50
2018-08-11T22:41:58.210Z,83.70
2018-08-11T22:44:26.656Z,83.70
2018-08-11T22:46:55.136Z,83.70
2018-08-11T22:49:23.608Z,83.50
2018-08-11T22:51:52.048Z,83.80
2018-08-11T22:56:48.605Z,83.90
2018-08-11T22:59:17.029Z,83.80
2018-08-11T23:01:45.454Z,83.70
2018-08-11T23:04:13.904Z,83.90
2018-08-11T23:06:42.372Z,83.90
2018-08-11T23:09:10.854Z,84.00
2018-08-11T23:11:39.278Z,84.00
2018-08-11T23:14:07.729Z,84.10
2018-08-11T23:16:36.193Z,84.40
2018-08-11T23:19:04.636Z,84.20
2018-08-11T23:21:33.069Z,84.40
2018-08-11T23:24:01.529Z,84.60
2018-08-11T23:26:29.959Z,84.60
2018-08-11T23:28:58.437Z,84.80
2018-08-11T23:31:26.929Z,84.90
2018-08-11T23:33:55.364Z,85.10
2018-08-11T23:36:23.824Z,85.20
2018-08-11T23:38:52.299Z,84.90
2018-08-11T23:41:20.755Z,84.80
2018-08-11T23:43:49.188Z,84.90
2018-08-11T23:46:17.620Z,84.90
2018-08-11T23:48:46.157Z,84.80
2018-08-11T23:51:14.848Z,84.90
2018-08-11T23:53:43.409Z,85.10
2018-08-11T23:56:12.681Z,84.90
2018-08-11T23:58:41.097Z,84.80
